Queen Charlotte Sound: Past 24 Hour Conditions

 

South Nomad - 46036

10:00 PM PDT 20 April 2014Buoy position: 48.35N 133.95W
This table is a summary of hourly weather conditions for the past 24 hours.
Date / Time
(PDT)
Wind(knots) Wave height(m) Wave period(s) Pressure(kPa) Air tempC) Water tempC)
20 April 2014
22:00 SW 16 gust 19 4.8 13.0 101.4 8 9
21:00 SW 16 gust 19 5.1 13.0 101.3 8 9
20:00 SW 18 gust 23 5.4 12.0 101.3 8 9
19:00 SW 18 gust 23 5.5 14.0 101.2 8 9
18:00 WSW 18 gust 23 5.3 12.0 101.2 8 9
17:00 SW 19 gust 23 5.6 14.0 101.1 8 9
16:00 WSW 21 gust 25 5.5 12.0 101.1 8 9
15:00 N/A N/A N/A N/A N/A N/A
14:00 N/A N/A N/A N/A N/A N/A
13:00 SW 25 gust 31 6.0 14.0 100.8 7 9
12:00 WSW 27 gust 31 6.1 13.0 100.7 8 9
11:00 WSW 27 gust 35 5.9 14.0 100.5 8 9
10:00 SW 31 gust 39 6.1 13.0 100.3 9 9
9:00 SSW 31 gust 37 5.5 14.0 100.2 9 9
8:00 SSW 27 gust 33 5.8 13.0 100.2 9 9
7:00 SSW 27 gust 35 5.5 14.0 100.2 10 9
6:00 S 21 gust 25 5.9 14.0 100.3 10 9
5:00 SSW 19 gust 25 6.7 14.0 100.3 10 9
4:00 S 21 gust 27 6.6 14.0 100.3 10 9
3:00 SSW 27 gust 31 6.9 14.0 100.4 10 9
2:00 S 27 gust 35 6.8 14.0 100.4 10 9
1:00 S 25 gust 31 7.3 15.0 100.5 9 9
0:00 S 23 gust 29 7.5 15.0 100.6 10 9
19 April 2014
23:00 S 23 gust 29 7.4 15.0 100.7 10 9
22:00 S 18 gust 23 8.1 16.0 100.7 10 9
 
Map of Pacific - South Coast marine weather areas Tsawwassen Ferry Terminal South Nomad - 46036 Sentry Shoal - 46131 South Brooks - 46132 Halibut Bank - 46146 South Moresby - 46147 South Hecate Strait - 46185 West Sea Otter - 46204 La Perouse Bank - 46206 East Dellwood - 46207 Discovery Island Esquimalt Harbour Kelp Reefs Malahat Race Rocks Lightstation Saturna Island Sheringham Point University of Victoria Victoria Gonzales Victoria Int'l Airport Ballenas Islands Campbell River Airport Comox Airport Entrance Island Fanny Island Nanaimo Airport Port Hardy Airport Sisters Islets Estevan Point Sartine Island Solander Island Tofino Airport Grief Point Powell River Airport Sechelt Cape St.James Bella Bella Airport Bella Coola Airport Cathedral Point Herbert Island Point Atkinson Sand Heads Lightstation Vancouver Harbour Vancouver Int'l Airport West Vancouver Port Alberni Howe Sound - Pam Rocks Squamish Airport